Time;durP1;ratioP1;P1;durP2;ratioP2;P2;SDS_P1;SDS_P2;PMS_P1;PMS_P2;Temp;Humidity;BMP_temperature;BMP_pressure;BME280_temperature;BME280_humidity;BME280_pressure;Samples;Min_cycle;Max_cycle;Signal;HPM_P1;HPM_P2
2021/12/07 00:01:01;;;;;;;56.47;24.73;;;;;;;;;;2630998;52;21054;-78
2021/12/07 00:03:28;;;;;;;58.20;25.77;;;;;;;;;;2631696;52;21082;-78
2021/12/07 00:05:55;;;;;;;52.88;25.27;;;;;;;;;;2378004;56;21087;-79
2021/12/07 00:08:22;;;;;;;57.15;24.87;;;;;;;;;;2377570;56;21003;-79
2021/12/07 00:10:50;;;;;;;54.28;23.23;;;;;;;;;;2377796;56;21613;-78
2021/12/07 00:13:17;;;;;;;52.83;25.90;;;;;;;;;;2377381;56;21031;-78
2021/12/07 00:15:46;;;;;;;51.60;22.95;;;;;;;;;;2377506;56;21047;-78
2021/12/07 00:18:14;;;;;;;55.05;25.45;;;;;;;;;;2377331;56;21039;-77
2021/12/07 00:20:41;;;;;;;51.45;24.37;;;;;;;;;;2630316;52;21030;-78
2021/12/07 00:23:09;;;;;;;53.80;25.77;;;;;;;;;;2630109;52;21058;-79
2021/12/07 00:25:36;;;;;;;54.75;23.10;;;;;;;;;;2376250;56;21149;-79
2021/12/07 00:28:04;;;;;;;55.63;25.60;;;;;;;;;;2376604;56;21583;-79
2021/12/07 00:30:34;;;;;;;57.25;25.90;;;;;;;;;;2376324;56;21015;-78
2021/12/07 00:33:13;;;;;;;53.63;23.58;;;;;;;;;;2375830;56;21035;-79
2021/12/07 00:35:41;;;;;;;53.75;24.35;;;;;;;;;;2376315;56;21102;-79
2021/12/07 00:38:09;;;;;;;47.25;21.95;;;;;;;;;;2376504;56;21094;-79
2021/12/07 00:40:36;;;;;;;54.72;23.48;;;;;;;;;;2630606;52;21007;-79
2021/12/07 00:43:03;;;;;;;52.22;23.30;;;;;;;;;;2376100;56;21039;-79
2021/12/07 00:45:33;;;;;;;56.63;25.35;;;;;;;;;;2376277;56;21007;-79
2021/12/07 00:48:00;;;;;;;58.13;25.65;;;;;;;;;;2376099;56;21034;-79
2021/12/07 00:50:28;;;;;;;53.05;24.70;;;;;;;;;;2375545;56;21138;-79
2021/12/07 00:52:56;;;;;;;52.85;24.12;;;;;;;;;;2630371;52;21019;-79
2021/12/07 00:55:24;;;;;;;59.65;24.87;;;;;;;;;;2630445;52;21043;-79
2021/12/07 00:57:53;;;;;;;49.72;23.50;;;;;;;;;;2630490;52;21082;-79
2021/12/07 01:00:21;;;;;;;54.63;24.48;;;;;;;;;;2375816;56;21087;-79
2021/12/07 01:02:48;;;;;;;53.45;24.52;;;;;;;;;;2376822;56;21055;-77
2021/12/07 01:05:20;;;;;;;47.85;22.33;;;;;;;;;;2376387;56;21120;-79
2021/12/07 01:07:57;;;;;;;53.63;24.00;;;;;;;;;;2630991;52;21026;-79
2021/12/07 01:26:55;;;;;;;57.30;25.17;;;;;;;;;;2376138;56;21002;-79
2021/12/07 01:29:25;;;;;;;52.22;23.62;;;;;;;;;;2377211;56;21023;-79
2021/12/07 01:32:01;;;;;;;49.28;21.73;;;;;;;;;;2376714;56;21097;-78
2021/12/07 01:34:55;;;;;;;57.65;25.12;;;;;;;;;;2629770;52;21104;-79
2021/12/07 01:37:35;;;;;;;55.33;23.92;;;;;;;;;;2376054;56;21097;-79
2021/12/07 01:40:25;;;;;;;55.50;24.77;;;;;;;;;;2629289;52;21038;-77
2021/12/07 01:43:38;;;;;;;58.20;25.30;;;;;;;;;;2629668;52;21069;-79
2021/12/07 02:00:00;;;;;;;54.22;24.75;;;;;;;;;;2345831;57;20974;-76
2021/12/07 02:02:31;;;;;;;55.47;22.17;;;;;;;;;;2346215;57;21113;-76
2021/12/07 02:04:58;;;;;;;52.92;24.63;;;;;;;;;;2346067;57;21097;-76
2021/12/07 02:07:26;;;;;;;53.87;23.87;;;;;;;;;;2345832;57;21038;-76
2021/12/07 02:09:57;;;;;;;46.90;20.95;;;;;;;;;;2345652;57;21046;-76
2021/12/07 02:12:26;;;;;;;56.63;23.67;;;;;;;;;;2345934;57;21110;-76
2021/12/07 02:14:53;;;;;;;51.97;24.90;;;;;;;;;;2345445;57;21050;-76
2021/12/07 02:17:24;;;;;;;53.25;23.62;;;;;;;;;;2345906;57;21599;-76
2021/12/07 02:19:51;;;;;;;48.33;21.23;;;;;;;;;;2345288;57;21129;-76
2021/12/07 02:22:18;;;;;;;57.08;22.90;;;;;;;;;;2345510;57;21110;-76
2021/12/07 02:24:45;;;;;;;52.70;24.02;;;;;;;;;;2345498;57;21797;-76
2021/12/07 02:27:12;;;;;;;50.58;21.42;;;;;;;;;;2345327;57;21042;-76
2021/12/07 02:29:39;;;;;;;46.55;23.05;;;;;;;;;;2345419;57;21093;-76
2021/12/07 02:32:08;;;;;;;55.40;24.65;;;;;;;;;;2345380;57;21038;-76
2021/12/07 02:34:37;;;;;;;55.67;25.08;;;;;;;;;;2345892;57;21675;-76
2021/12/07 02:37:04;;;;;;;52.55;23.75;;;;;;;;;;2345941;57;21399;-76
2021/12/07 02:39:32;;;;;;;50.88;22.45;;;;;;;;;;2345728;57;21022;-76
2021/12/07 02:42:00;;;;;;;56.90;25.15;;;;;;;;;;2592771;53;21022;-76
2021/12/07 02:44:27;;;;;;;57.80;23.48;;;;;;;;;;2345758;57;21517;-76
2021/12/07 02:46:54;;;;;;;53.17;23.90;;;;;;;;;;2344954;57;21027;-76
2021/12/07 02:49:21;;;;;;;55.40;24.12;;;;;;;;;;2345276;57;21058;-76
2021/12/07 02:51:48;;;;;;;54.13;23.92;;;;;;;;;;2345727;57;21149;-76
2021/12/07 02:54:17;;;;;;;52.22;23.10;;;;;;;;;;2345829;57;21041;-76
2021/12/07 02:56:45;;;;;;;53.25;23.80;;;;;;;;;;2346213;57;21030;-76
2021/12/07 02:59:12;;;;;;;53.65;24.05;;;;;;;;;;2345491;57;21050;-76
2021/12/07 03:01:46;;;;;;;53.20;24.70;;;;;;;;;;2345460;57;21428;-76
2021/12/07 03:04:19;;;;;;;56.00;24.27;;;;;;;;;;2345419;57;21054;-76
2021/12/07 03:06:56;;;;;;;56.10;25.48;;;;;;;;;;2344763;57;21046;-76
2021/12/07 03:26:17;;;;;;;53.47;24.48;;;;;;;;;;2375030;56;21545;-76
2021/12/07 03:28:45;;;;;;;56.63;23.10;;;;;;;;;;2374706;56;21051;-76
2021/12/07 03:31:12;;;;;;;55.03;24.52;;;;;;;;;;2373430;56;21634;-76
2021/12/07 03:33:39;;;;;;;52.45;24.63;;;;;;;;;;2375305;56;21032;-76
2021/12/07 03:36:08;;;;;;;55.38;23.50;;;;;;;;;;2374754;56;21051;-76
2021/12/07 03:38:35;;;;;;;50.40;24.25;;;;;;;;;;2375148;56;21044;-76
2021/12/07 03:41:02;;;;;;;54.15;22.98;;;;;;;;;;2374855;56;21107;-76
2021/12/07 03:43:29;;;;;;;58.33;26.98;;;;;;;;;;2375194;56;21044;-76
2021/12/07 03:45:56;;;;;;;56.33;23.87;;;;;;;;;;2375209;56;21098;-76
2021/12/07 03:48:23;;;;;;;57.62;25.62;;;;;;;;;;2374438;56;21060;-76
2021/12/07 03:50:50;;;;;;;52.65;22.98;;;;;;;;;;2374161;56;21032;-76
2021/12/07 03:53:17;;;;;;;60.97;25.45;;;;;;;;;;2374452;56;21378;-76
2021/12/07 03:55:45;;;;;;;55.28;24.73;;;;;;;;;;2374840;56;21764;-76
2021/12/07 03:58:12;;;;;;;51.33;23.50;;;;;;;;;;2374951;56;21109;-76
2021/12/07 04:00:42;;;;;;;60.03;25.00;;;;;;;;;;2374524;56;21111;-76
2021/12/07 04:03:12;;;;;;;53.67;24.52;;;;;;;;;;2375123;56;21717;-76
2021/12/07 04:05:45;;;;;;;51.80;23.65;;;;;;;;;;2374751;56;21606;-76
2021/12/07 04:08:13;;;;;;;58.75;25.48;;;;;;;;;;2374761;56;21048;-76
2021/12/07 04:10:40;;;;;;;48.15;21.40;;;;;;;;;;2374889;56;21124;-76
2021/12/07 04:13:07;;;;;;;52.53;23.38;;;;;;;;;;2374512;56;21052;-76
2021/12/07 04:15:34;;;;;;;52.97;23.15;;;;;;;;;;2340527;53;21615;-77
2021/12/07 04:18:02;;;;;;;48.45;21.98;;;;;;;;;;2291923;58;21059;-76
2021/12/07 04:20:29;;;;;;;53.50;24.02;;;;;;;;;;2370130;55;21134;-77
2021/12/07 04:22:56;;;;;;;48.97;22.85;;;;;;;;;;2291630;58;21059;-76
2021/12/07 04:25:23;;;;;;;55.30;23.58;;;;;;;;;;2291200;58;21059;-77
2021/12/07 04:27:51;;;;;;;56.78;22.52;;;;;;;;;;2299221;55;21127;-77
2021/12/07 04:30:20;;;;;;;46.88;22.20;;;;;;;;;;2289781;58;21039;-77
2021/12/07 04:32:47;;;;;;;52.05;23.27;;;;;;;;;;2290145;58;21127;-76
2021/12/07 04:35:15;;;;;;;48.90;22.20;;;;;;;;;;2313844;55;21163;-77
2021/12/07 04:37:43;;;;;;;50.33;21.73;;;;;;;;;;2290682;58;21095;-76
2021/12/07 04:40:12;;;;;;;49.28;22.85;;;;;;;;;;2290368;58;21067;-78
2021/12/07 04:42:39;;;;;;;53.45;22.60;;;;;;;;;;2323730;55;21565;-77
2021/12/07 04:45:11;;;;;;;48.72;22.85;;;;;;;;;;2290519;58;21075;-77
2021/12/07 04:47:49;;;;;;;51.72;23.10;;;;;;;;;;2430097;55;21142;-77
2021/12/07 04:50:34;;;;;;;53.00;22.98;;;;;;;;;;2290340;55;21063;-77
2021/12/07 04:58:33;;;;;;;50.33;22.95;;;;;;;;;;2301827;55;21593;-79
2021/12/07 05:01:00;;;;;;;55.03;23.23;;;;;;;;;;2309591;55;21158;-76
2021/12/07 05:03:29;;;;;;;49.03;21.25;;;;;;;;;;2291427;55;21070;-77
2021/12/07 05:05:56;;;;;;;53.47;23.48;;;;;;;;;;2294559;55;21119;-77
2021/12/07 05:08:35;;;;;;;51.37;22.77;;;;;;;;;;2298638;55;21147;-76
2021/12/07 05:11:26;;;;;;;46.40;21.90;;;;;;;;;;2289446;58;21178;-79
2021/12/07 05:14:00;;;;;;;60.65;23.38;;;;;;;;;;2298777;55;21085;-76
2021/12/07 05:16:41;;;;;;;45.83;21.75;;;;;;;;;;2290329;58;21091;-76
2021/12/07 05:23:53;;;;;;;52.05;23.08;;;;;;;;;;2290382;58;21095;-78
2021/12/07 05:37:53;;;;;;;50.80;22.67;;;;;;;;;;2336899;55;21127;-77
2021/12/07 05:40:21;;;;;;;49.45;21.87;;;;;;;;;;2290740;58;21142;-77
2021/12/07 05:42:48;;;;;;;54.22;23.08;;;;;;;;;;2290158;58;21570;-77
2021/12/07 05:45:17;;;;;;;46.78;20.60;;;;;;;;;;2290668;58;21142;-77
2021/12/07 05:47:44;;;;;;;51.70;23.02;;;;;;;;;;2290160;58;21051;-76
2021/12/07 05:50:12;;;;;;;46.78;21.75;;;;;;;;;;2302246;55;21103;-77
2021/12/07 05:52:39;;;;;;;47.40;21.15;;;;;;;;;;2290300;58;21059;-78
2021/12/07 05:55:07;;;;;;;47.53;23.23;;;;;;;;;;2290606;58;22003;-76
2021/12/07 05:57:35;;;;;;;53.58;24.77;;;;;;;;;;2290455;58;21142;-76
2021/12/07 06:00:02;;;;;;;47.47;22.87;;;;;;;;;;2289816;58;21613;-76
2021/12/07 06:02:29;;;;;;;51.00;22.77;;;;;;;;;;2290838;58;21059;-78
2021/12/07 06:04:56;;;;;;;48.75;21.70;;;;;;;;;;2290787;58;21059;-76
2021/12/07 06:07:23;;;;;;;52.83;21.80;;;;;;;;;;2290634;58;21051;-77
2021/12/07 06:09:50;;;;;;;50.80;23.23;;;;;;;;;;2290711;58;21134;-76
2021/12/07 06:12:17;;;;;;;52.20;21.95;;;;;;;;;;2377064;55;21059;-74
2021/12/07 06:14:44;;;;;;;51.03;22.70;;;;;;;;;;2290612;58;21218;-74
2021/12/07 06:17:12;;;;;;;50.05;23.90;;;;;;;;;;2290950;58;21048;-77
2021/12/07 06:19:39;;;;;;;52.22;23.05;;;;;;;;;;2290159;58;21074;-77
2021/12/07 06:22:06;;;;;;;47.20;21.48;;;;;;;;;;2291052;58;21651;-77
2021/12/07 06:24:34;;;;;;;50.97;23.80;;;;;;;;;;2290703;58;21107;-77
2021/12/07 06:27:01;;;;;;;44.67;19.83;;;;;;;;;;2290538;58;21063;-79
2021/12/07 06:29:28;;;;;;;50.58;23.45;;;;;;;;;;2319556;55;21071;-76
2021/12/07 06:31:55;;;;;;;49.88;23.87;;;;;;;;;;2290604;58;21071;-78
2021/12/07 06:34:22;;;;;;;51.05;22.00;;;;;;;;;;2290067;58;21071;-77
2021/12/07 06:36:49;;;;;;;55.30;23.12;;;;;;;;;;2289805;58;21947;-77
2021/12/07 06:39:18;;;;;;;54.45;24.23;;;;;;;;;;2289422;58;21627;-77
2021/12/07 06:41:45;;;;;;;46.22;22.73;;;;;;;;;;2290415;58;21357;-77
2021/12/07 06:44:12;;;;;;;48.33;22.85;;;;;;;;;;2353971;55;21118;-77
2021/12/07 06:46:39;;;;;;;53.28;24.05;;;;;;;;;;2290194;58;21122;-76
2021/12/07 06:49:06;;;;;;;49.17;20.75;;;;;;;;;;2289984;58;21067;-77
2021/12/07 06:51:33;;;;;;;54.03;23.70;;;;;;;;;;2290582;58;21055;-76
2021/12/07 06:54:00;;;;;;;52.30;24.00;;;;;;;;;;2290315;58;21217;-78
2021/12/07 06:56:28;;;;;;;53.25;23.83;;;;;;;;;;2290732;58;21617;-76
2021/12/07 06:58:55;;;;;;;50.50;24.02;;;;;;;;;;2329618;55;21222;-77
2021/12/07 07:01:23;;;;;;;48.95;21.15;;;;;;;;;;2289177;58;21561;-77
2021/12/07 07:03:50;;;;;;;48.08;21.50;;;;;;;;;;2290455;58;21047;-76
2021/12/07 07:06:17;;;;;;;54.30;24.05;;;;;;;;;;2313020;55;21059;-76
2021/12/07 07:08:44;;;;;;;53.22;23.95;;;;;;;;;;2389411;55;21605;-77
2021/12/07 07:11:11;;;;;;;51.53;23.92;;;;;;;;;;2289142;58;21067;-76
2021/12/07 07:13:38;;;;;;;48.65;24.33;;;;;;;;;;2290732;58;21138;-77
2021/12/07 07:16:06;;;;;;;54.38;24.23;;;;;;;;;;2289931;58;21192;-76
2021/12/07 07:18:34;;;;;;;59.42;25.85;;;;;;;;;;2290888;58;21114;-76
2021/12/07 07:21:02;;;;;;;53.65;24.25;;;;;;;;;;2289938;58;21048;-76
2021/12/07 07:23:29;;;;;;;53.10;23.48;;;;;;;;;;2290743;58;21055;-75
2021/12/07 07:25:56;;;;;;;52.38;23.48;;;;;;;;;;2290570;58;21674;-77
2021/12/07 07:28:23;;;;;;;56.30;23.92;;;;;;;;;;2353473;55;21059;-80
2021/12/07 07:30:50;;;;;;;49.15;21.87;;;;;;;;;;2289659;58;21074;-76
2021/12/07 07:33:18;;;;;;;58.65;23.17;;;;;;;;;;2290597;58;21692;-76
2021/12/07 07:35:45;;;;;;;49.10;22.25;;;;;;;;;;2290205;58;21051;-77
2021/12/07 07:38:12;;;;;;;53.63;24.67;;;;;;;;;;2290304;58;21063;-76
2021/12/07 07:40:39;;;;;;;52.17;23.30;;;;;;;;;;2371624;55;21063;-77
2021/12/07 07:43:06;;;;;;;51.70;21.70;;;;;;;;;;2290483;58;21102;-76
2021/12/07 07:45:33;;;;;;;48.17;23.08;;;;;;;;;;2290584;58;21067;-78
2021/12/07 07:48:00;;;;;;;48.00;22.15;;;;;;;;;;2290662;58;21075;-77
2021/12/07 07:50:27;;;;;;;47.72;21.73;;;;;;;;;;2295404;55;21063;-76
2021/12/07 07:52:54;;;;;;;47.42;21.45;;;;;;;;;;2290038;58;21162;-76
2021/12/07 07:55:21;;;;;;;52.95;22.85;;;;;;;;;;2290330;58;21562;-76
2021/12/07 07:57:48;;;;;;;48.95;22.55;;;;;;;;;;2290225;58;21067;-75
2021/12/07 08:00:17;;;;;;;49.75;21.98;;;;;;;;;;2289300;58;21147;-76
2021/12/07 08:02:44;;;;;;;49.17;22.25;;;;;;;;;;2290535;58;21075;-76
2021/12/07 08:05:11;;;;;;;48.70;22.95;;;;;;;;;;2290538;58;21082;-77
2021/12/07 08:07:39;;;;;;;48.05;21.30;;;;;;;;;;2449552;55;21055;-75
2021/12/07 08:10:08;;;;;;;44.80;19.90;;;;;;;;;;2289624;58;21079;-76
2021/12/07 08:12:36;;;;;;;49.45;21.87;;;;;;;;;;2290576;58;21596;-77
2021/12/07 08:15:03;;;;;;;45.60;22.02;;;;;;;;;;2290356;58;21066;-78
2021/12/07 08:17:30;;;;;;;42.92;20.27;;;;;;;;;;2290837;58;21569;-78
2021/12/07 08:19:57;;;;;;;45.92;21.92;;;;;;;;;;2289618;58;21217;-78
2021/12/07 08:22:24;;;;;;;49.67;22.15;;;;;;;;;;2296395;55;21106;-77
2021/12/07 08:24:51;;;;;;;45.03;21.83;;;;;;;;;;2293227;55;21158;-76
2021/12/07 08:27:18;;;;;;;48.15;21.45;;;;;;;;;;2290647;58;21581;-75
2021/12/07 08:29:45;;;;;;;45.90;18.33;;;;;;;;;;2290096;58;21111;-76
2021/12/07 08:32:12;;;;;;;47.03;21.42;;;;;;;;;;2346561;55;21217;-78
2021/12/07 08:34:39;;;;;;;46.17;21.40;;;;;;;;;;2309895;55;21070;-77
2021/12/07 08:37:07;;;;;;;47.25;20.23;;;;;;;;;;2290691;58;21079;-76
2021/12/07 08:39:34;;;;;;;86.10;24.63;;;;;;;;;;2290464;56;21118;-74
2021/12/07 08:42:02;;;;;;;43.33;20.25;;;;;;;;;;2393317;55;21169;-74
2021/12/07 08:44:29;;;;;;;46.70;20.70;;;;;;;;;;2290505;58;21059;-75
2021/12/07 08:46:56;;;;;;;42.33;19.48;;;;;;;;;;2290395;58;21122;-77
2021/12/07 08:49:23;;;;;;;49.63;21.77;;;;;;;;;;2290296;58;21565;-75
2021/12/07 08:51:51;;;;;;;43.70;18.10;;;;;;;;;;2291018;58;21082;-75
2021/12/07 08:54:28;;;;;;;43.35;19.02;;;;;;;;;;2376673;55;21138;-75
2021/12/07 08:59:44;;;;;;;36.08;17.20;;;;;;;;;;2290016;55;20988;-75
2021/12/07 09:02:12;;;;;;;38.50;19.35;;;;;;;;;;2290310;58;21059;-75
2021/12/07 09:04:39;;;;;;;42.60;19.45;;;;;;;;;;2291074;58;21071;-75
2021/12/07 09:07:06;;;;;;;41.72;20.08;;;;;;;;;;2290655;58;21071;-75
2021/12/07 09:09:33;;;;;;;42.13;19.02;;;;;;;;;;2290363;58;21130;-75
2021/12/07 09:12:00;;;;;;;43.30;19.92;;;;;;;;;;2289118;55;21035;-75
2021/12/07 09:14:29;;;;;;;41.60;19.23;;;;;;;;;;2290064;58;21059;-75
2021/12/07 09:16:56;;;;;;;38.08;17.52;;;;;;;;;;2290855;58;21078;-75
2021/12/07 09:19:24;;;;;;;42.95;20.00;;;;;;;;;;2289947;58;21063;-75
2021/12/07 09:21:51;;;;;;;44.33;20.27;;;;;;;;;;2290716;58;21601;-75
2021/12/07 09:24:18;;;;;;;38.63;17.52;;;;;;;;;;2388553;55;21178;-75
2021/12/07 09:26:45;;;;;;;40.90;19.62;;;;;;;;;;2289697;58;21090;-76
2021/12/07 09:29:12;;;;;;;44.45;19.08;;;;;;;;;;2289454;58;21606;-75
2021/12/07 09:31:40;;;;;;;45.97;20.65;;;;;;;;;;2290226;58;21130;-76
2021/12/07 09:34:07;;;;;;;42.22;20.75;;;;;;;;;;2291140;58;21661;-77
2021/12/07 09:36:34;;;;;;;40.63;18.80;;;;;;;;;;2298434;55;21051;-77
2021/12/07 09:39:01;;;;;;;46.53;20.30;;;;;;;;;;2290772;58;21541;-76
2021/12/07 09:41:28;;;;;;;38.42;18.48;;;;;;;;;;2290567;58;21704;-76
2021/12/07 09:43:55;;;;;;;41.63;18.92;;;;;;;;;;2290741;58;21051;-76
2021/12/07 09:46:22;;;;;;;41.92;21.30;;;;;;;;;;2291152;58;21055;-76
2021/12/07 09:48:49;;;;;;;38.35;19.30;;;;;;;;;;2290710;58;21146;-76
2021/12/07 09:51:17;;;;;;;42.95;18.45;;;;;;;;;;2291232;58;21078;-78
2021/12/07 09:53:45;;;;;;;42.92;20.33;;;;;;;;;;2290404;58;21075;-76
2021/12/07 09:56:12;;;;;;;36.20;16.65;;;;;;;;;;2294331;55;21078;-76
2021/12/07 09:58:40;;;;;;;38.70;18.60;;;;;;;;;;2291080;58;21159;-76
2021/12/07 10:01:08;;;;;;;39.80;18.87;;;;;;;;;;2291218;58;21134;-76
2021/12/07 10:03:36;;;;;;;41.00;19.95;;;;;;;;;;2508365;55;21739;-76
2021/12/07 10:06:03;;;;;;;43.83;20.70;;;;;;;;;;2343040;55;21138;-76
2021/12/07 10:08:30;;;;;;;40.88;19.30;;;;;;;;;;2291109;58;21063;-78
2021/12/07 10:10:58;;;;;;;43.40;19.58;;;;;;;;;;2393808;55;21127;-76
2021/12/07 10:13:27;;;;;;;41.67;19.15;;;;;;;;;;2291040;58;21067;-76
2021/12/07 10:15:55;;;;;;;37.70;18.15;;;;;;;;;;2384983;53;21075;-77
2021/12/07 10:18:23;;;;;;;42.67;19.95;;;;;;;;;;2330533;57;21045;-77
2021/12/07 10:20:51;;;;;;;42.72;19.70;;;;;;;;;;2329834;57;21034;-77
2021/12/07 10:23:27;;;;;;;42.62;19.85;;;;;;;;;;2330343;57;21053;-77
2021/12/07 10:25:55;;;;;;;39.70;18.27;;;;;;;;;;2330344;57;21151;-77
2021/12/07 10:28:27;;;;;;;43.40;19.90;;;;;;;;;;2330406;57;21117;-77
2021/12/07 10:30:55;;;;;;;45.12;20.45;;;;;;;;;;2329590;57;21120;-77
2021/12/07 10:33:29;;;;;;;39.00;19.73;;;;;;;;;;2330065;57;21100;-77
2021/12/07 10:36:05;;;;;;;39.83;18.65;;;;;;;;;;2330474;57;21128;-77
2021/12/07 10:38:32;;;;;;;40.53;20.90;;;;;;;;;;2330227;57;21057;-77
2021/12/07 10:41:02;;;;;;;42.38;18.52;;;;;;;;;;2329864;57;21076;-77
2021/12/07 10:43:49;;;;;;;45.28;21.33;;;;;;;;;;2330425;57;21049;-77
2021/12/07 10:46:27;;;;;;;42.30;19.17;;;;;;;;;;2330476;57;21539;-77
2021/12/07 10:49:08;;;;;;;40.90;19.17;;;;;;;;;;2329954;57;21061;-77
2021/12/07 10:51:35;;;;;;;41.37;17.95;;;;;;;;;;2330095;57;21045;-77
2021/12/07 10:54:02;;;;;;;45.17;21.90;;;;;;;;;;2330434;57;21542;-77
2021/12/07 10:56:30;;;;;;;41.35;19.45;;;;;;;;;;2330294;57;21049;-77
2021/12/07 10:59:01;;;;;;;40.95;20.98;;;;;;;;;;2329995;57;21555;-77
2021/12/07 11:01:35;;;;;;;40.25;17.73;;;;;;;;;;2329942;57;21810;-77
2021/12/07 11:04:24;;;;;;;45.35;20.83;;;;;;;;;;2330385;57;21052;-77
2021/12/07 11:07:05;;;;;;;51.00;21.55;;;;;;;;;;2573824;53;21849;-77
2021/12/07 11:09:37;;;;;;;45.12;19.70;;;;;;;;;;2329678;57;21065;-76
2021/12/07 11:12:08;;;;;;;45.83;20.00;;;;;;;;;;2329882;57;21492;-76
2021/12/07 11:14:48;;;;;;;50.97;23.73;;;;;;;;;;2330082;57;21069;-77
2021/12/07 11:17:15;;;;;;;44.58;19.98;;;;;;;;;;2330368;57;21049;-77
2021/12/07 11:19:42;;;;;;;41.08;19.02;;;;;;;;;;2320930;57;21551;-77
2021/12/07 11:22:09;;;;;;;40.92;17.75;;;;;;;;;;2330686;57;21124;-77
2021/12/07 11:24:37;;;;;;;46.90;21.58;;;;;;;;;;2330384;57;21713;-77
2021/12/07 11:29:58;;;;;;;40.58;19.30;;;;;;;;;;2329681;57;21029;-77
2021/12/07 11:32:25;;;;;;;49.85;22.13;;;;;;;;;;2330359;57;21127;-77
2021/12/07 11:34:52;;;;;;;42.78;20.62;;;;;;;;;;2330104;57;21567;-77
2021/12/07 11:37:22;;;;;;;49.72;21.48;;;;;;;;;;2330815;57;21049;-77
2021/12/07 11:39:51;;;;;;;41.55;18.92;;;;;;;;;;2330387;57;21124;-77
2021/12/07 11:42:19;;;;;;;47.42;21.23;;;;;;;;;;2330373;57;21057;-77
2021/12/07 11:44:48;;;;;;;46.03;21.48;;;;;;;;;;2330473;57;21061;-77
2021/12/07 11:47:15;;;;;;;48.35;21.85;;;;;;;;;;2330613;57;21632;-77
2021/12/07 11:49:42;;;;;;;40.75;19.27;;;;;;;;;;2330363;57;21069;-77
2021/12/07 11:52:10;;;;;;;43.83;21.85;;;;;;;;;;2330299;57;21125;-77
2021/12/07 11:54:39;;;;;;;47.25;21.33;;;;;;;;;;2330409;57;21057;-77
2021/12/07 11:57:08;;;;;;;45.65;22.10;;;;;;;;;;2574261;53;21053;-77
2021/12/07 11:59:35;;;;;;;48.15;21.60;;;;;;;;;;2330025;57;21448;-77
2021/12/07 12:02:02;;;;;;;40.50;19.87;;;;;;;;;;2330684;57;21093;-77
2021/12/07 12:04:29;;;;;;;42.38;19.52;;;;;;;;;;2330602;57;21136;-77
2021/12/07 12:06:58;;;;;;;53.03;23.25;;;;;;;;;;2330543;57;21049;-76
2021/12/07 12:09:25;;;;;;;45.70;20.88;;;;;;;;;;2329978;57;21071;-77
2021/12/07 12:11:56;;;;;;;45.50;21.00;;;;;;;;;;2329990;57;21057;-76
2021/12/07 12:14:33;;;;;;;46.55;21.67;;;;;;;;;;2330373;57;21391;-77
2021/12/07 12:17:04;;;;;;;43.17;20.12;;;;;;;;;;2330618;57;21044;-76
2021/12/07 12:19:38;;;;;;;50.42;22.02;;;;;;;;;;2330037;57;21065;-76
2021/12/07 12:22:09;;;;;;;42.97;19.60;;;;;;;;;;2329480;57;21057;-76
2021/12/07 12:24:38;;;;;;;51.55;23.27;;;;;;;;;;2330297;57;21060;-78
2021/12/07 12:27:07;;;;;;;43.22;21.40;;;;;;;;;;2573729;53;21084;-79
2021/12/07 12:29:35;;;;;;;54.20;23.23;;;;;;;;;;2329842;57;21544;-79
2021/12/07 12:32:02;;;;;;;48.97;23.62;;;;;;;;;;2330386;57;21180;-79
2021/12/07 12:34:31;;;;;;;52.75;22.62;;;;;;;;;;2330821;57;21090;-78
2021/12/07 12:37:01;;;;;;;44.03;21.75;;;;;;;;;;2330876;57;21061;-79
2021/12/07 12:39:42;;;;;;;47.55;22.48;;;;;;;;;;2573950;54;21124;-79
2021/12/07 12:42:09;;;;;;;46.75;23.62;;;;;;;;;;2330397;57;21096;-78
2021/12/07 12:44:37;;;;;;;49.33;24.25;;;;;;;;;;2330429;57;21120;-78
2021/12/07 12:47:06;;;;;;;49.58;22.52;;;;;;;;;;2330606;57;21064;-78
2021/12/07 12:49:43;;;;;;;47.97;22.37;;;;;;;;;;2330335;57;21116;-78
2021/12/07 12:52:11;;;;;;;48.50;22.15;;;;;;;;;;2573944;53;21109;-80
2021/12/07 12:54:39;;;;;;;49.97;22.27;;;;;;;;;;2330569;57;21069;-78
2021/12/07 12:57:11;;;;;;;47.42;21.27;;;;;;;;;;2330581;57;21128;-79
2021/12/07 12:59:39;;;;;;;47.03;21.58;;;;;;;;;;2573378;53;21068;-78
2021/12/07 13:02:06;;;;;;;49.42;19.70;;;;;;;;;;2330931;57;21112;-78
2021/12/07 13:04:34;;;;;;;51.88;23.73;;;;;;;;;;2331103;57;21579;-78
2021/12/07 13:07:23;;;;;;;51.55;23.83;;;;;;;;;;2331126;57;21065;-78
2021/12/07 13:09:53;;;;;;;49.50;21.30;;;;;;;;;;2330170;57;21049;-77
2021/12/07 13:12:21;;;;;;;47.90;22.15;;;;;;;;;;2331922;57;21121;-78
2021/12/07 13:14:54;;;;;;;48.28;22.85;;;;;;;;;;2574311;53;21089;-78
2021/12/07 13:17:23;;;;;;;55.35;24.65;;;;;;;;;;2331559;57;21113;-78
2021/12/07 13:20:07;;;;;;;48.65;22.60;;;;;;;;;;2331010;57;21813;-77
2021/12/07 13:22:36;;;;;;;50.65;23.65;;;;;;;;;;2331500;57;21117;-78
2021/12/07 13:25:06;;;;;;;52.90;24.10;;;;;;;;;;2331087;57;21175;-79
2021/12/07 13:27:33;;;;;;;48.80;22.92;;;;;;;;;;2331063;57;21095;-80
2021/12/07 13:30:00;;;;;;;51.63;25.12;;;;;;;;;;2573140;54;21092;-80
2021/12/07 13:32:27;;;;;;;52.85;23.70;;;;;;;;;;2574215;54;21076;-79
2021/12/07 13:35:00;;;;;;;45.85;21.60;;;;;;;;;;2329286;57;21113;-80
2021/12/07 13:37:44;;;;;;;48.67;23.30;;;;;;;;;;2573458;53;21049;-78
2021/12/07 13:40:18;;;;;;;53.28;23.73;;;;;;;;;;2329580;57;21197;-77
2021/12/07 13:42:48;;;;;;;50.20;23.30;;;;;;;;;;2573918;54;21077;-77
2021/12/07 13:45:17;;;;;;;45.58;23.48;;;;;;;;;;2330152;57;21080;-77
2021/12/07 13:47:45;;;;;;;49.10;21.48;;;;;;;;;;2330933;57;21128;-77
2021/12/07 13:50:14;;;;;;;53.97;25.62;;;;;;;;;;2330314;57;21053;-77
2021/12/07 13:52:43;;;;;;;54.25;24.42;;;;;;;;;;2330196;57;21048;-78
2021/12/07 13:55:11;;;;;;;50.15;23.12;;;;;;;;;;2330248;57;21057;-77
2021/12/07 13:57:39;;;;;;;52.08;22.98;;;;;;;;;;2329975;57;21058;-77
2021/12/07 14:00:09;;;;;;;38.85;19.40;;;;;;;;;;2329296;57;21354;-77
2021/12/07 14:02:37;;;;;;;53.33;22.95;;;;;;;;;;2329981;57;21140;-78
2021/12/07 14:05:10;;;;;;;53.85;23.10;;;;;;;;;;2330439;57;21109;-77
2021/12/07 14:07:37;;;;;;;57.55;25.40;;;;;;;;;;2330551;57;21048;-78
2021/12/07 14:10:06;;;;;;;54.25;23.98;;;;;;;;;;2328864;57;21069;-78
2021/12/07 14:12:33;;;;;;;47.85;23.45;;;;;;;;;;2329401;57;21135;-78
2021/12/07 14:15:06;;;;;;;49.42;21.75;;;;;;;;;;2330591;57;21116;-78
2021/12/07 14:17:41;;;;;;;52.50;25.83;;;;;;;;;;2331050;57;21073;-78
2021/12/07 14:20:09;;;;;;;47.45;21.90;;;;;;;;;;2330002;57;21132;-78
2021/12/07 14:22:36;;;;;;;48.92;23.05;;;;;;;;;;2330031;57;21120;-78
2021/12/07 14:25:04;;;;;;;51.15;23.80;;;;;;;;;;2329836;57;21611;-77
2021/12/07 14:27:31;;;;;;;49.40;23.25;;;;;;;;;;2330350;57;21559;-78
2021/12/07 14:29:59;;;;;;;52.30;23.87;;;;;;;;;;2328795;57;21101;-77
2021/12/07 14:32:26;;;;;;;59.80;24.23;;;;;;;;;;2330249;57;21654;-78
2021/12/07 14:34:54;;;;;;;54.55;23.85;;;;;;;;;;2329992;57;21045;-78
2021/12/07 14:37:21;;;;;;;65.03;28.75;;;;;;;;;;2330153;57;21569;-78
2021/12/07 14:39:48;;;;;;;53.35;24.20;;;;;;;;;;2329223;57;21081;-78
2021/12/07 14:42:16;;;;;;;51.67;22.75;;;;;;;;;;2329999;57;21053;-79
2021/12/07 14:44:44;;;;;;;50.10;22.37;;;;;;;;;;2330159;57;21587;-78
2021/12/07 14:47:12;;;;;;;51.53;22.83;;;;;;;;;;2329578;57;21547;-78
2021/12/07 14:49:46;;;;;;;53.58;24.10;;;;;;;;;;2330748;57;21164;-79
2021/12/07 14:52:14;;;;;;;57.95;24.65;;;;;;;;;;2574189;53;21057;-78
2021/12/07 14:54:42;;;;;;;60.78;26.52;;;;;;;;;;2330342;57;21069;-78
2021/12/07 14:57:09;;;;;;;54.50;23.87;;;;;;;;;;2330064;57;21120;-77
2021/12/07 14:59:36;;;;;;;55.22;25.37;;;;;;;;;;2329602;57;21065;-78
2021/12/07 15:02:04;;;;;;;53.50;23.58;;;;;;;;;;2573889;53;21049;-78
2021/12/07 15:04:31;;;;;;;60.33;24.65;;;;;;;;;;2329638;57;21132;-77
2021/12/07 15:07:00;;;;;;;61.20;24.95;;;;;;;;;;2330057;57;21108;-77
2021/12/07 15:09:27;;;;;;;57.08;25.15;;;;;;;;;;2329651;57;21128;-77
2021/12/07 15:12:01;;;;;;;58.78;25.27;;;;;;;;;;2329785;57;21049;-77
2021/12/07 15:14:31;;;;;;;52.58;23.27;;;;;;;;;;2571962;54;21061;-77
2021/12/07 15:16:59;;;;;;;57.60;25.10;;;;;;;;;;2328839;57;21560;-77
2021/12/07 15:19:26;;;;;;;55.67;24.63;;;;;;;;;;2328675;57;21192;-77
2021/12/07 15:21:54;;;;;;;52.60;22.98;;;;;;;;;;2330193;57;21068;-77
2021/12/07 15:24:22;;;;;;;54.40;24.42;;;;;;;;;;2571784;54;21029;-77
2021/12/07 15:26:50;;;;;;;49.58;23.62;;;;;;;;;;2329540;57;21168;-78
2021/12/07 15:29:19;;;;;;;58.00;24.42;;;;;;;;;;2330408;57;21147;-79
2021/12/07 15:31:48;;;;;;;51.45;22.02;;;;;;;;;;2330054;57;21607;-80
2021/12/07 15:34:15;;;;;;;47.83;20.88;;;;;;;;;;2573768;54;21203;-80
2021/12/07 15:36:44;;;;;;;57.92;26.42;;;;;;;;;;2330219;57;21132;-77
2021/12/07 15:39:13;;;;;;;54.83;24.55;;;;;;;;;;2330252;57;21141;-81
2021/12/07 15:41:41;;;;;;;56.83;24.85;;;;;;;;;;2330294;57;21128;-80